News

archive

Latest blog post

archive

Flying Academy s.r.o.
Beranových 130
Praha 9 - Letnany
199 00
Czech Republic

www.FlyingAcademy.com
fly@FlyingAcademy.com

Czech Republic +420 2 2888 2444
+1 321-214-0961
+86 10 8405 3451

Latest weather

LKKV

LKKV 191230Z 12006KT 5000 BR OVC004 M01/M02 Q1017 R29/19//95

LKPR

LKPR 191230Z 14004KT 8000 OVC015 00/M02 Q1019 R88/CLRD// NOSIG

LKTB

LKTB 191230Z 12012KT 9999 OVC022 01/M03 Q1023 NOSIG



Briefing tools

METAR & TAF Europe

METAR & TAF CZ

Weather Radar CZ

AIP Czech Republic

From 0 to ATPL with Flying Academy Find out how